Accueil
METAR-TAF:

METAR-TAF

Aéroports :

Aurigny,

Aéroport d'Aurigny

latitude: 49-43N, longitude: 002-12W, altitude: 71 m

Observation

Le bulletin a été fait il y a 1 heure et 28 minutes, à 17:50 UTC
Vent 17 kt de sud-ouest
Température 14°C
Pression 1011 hPa
Visibilité 10 km ou plus
Nuages fragmentés à une hauteur de 3100 ft

METAR: EGJA 211750Z 22017KT 9999 BKN031 14/// Q1011

Heure: 19:18 (19:18 UTC)

Prévision

Le bulletin a été fait il y a 5 heures et 18 minutes, à 14:00 UTC
Prévision valable du 21 à 15 UTC au 21 à 19 UTC
Vent 18 kt de sud-ouest
Visibilité 10 km ou plus
Quelques nuages à une hauteur de 1800 ft
Nuages fragmentés à une hauteur de 3000 ft
Probabilité 30% :
Temporairement
du 21 à 17 UTC au 21 à 19 UTC
Vent 19 kt de sud-ouest avec des rafales jusqu'à 30 kt

TAF: EGJA 211400Z 2115/2119 23018KT 9999 FEW018 BKN030 PROB30 TEMPO 2117/2119 23019G30KT

Observations et prévisions météorologiques de plus de 4000 aéroports (messages METAR et TAF).

Les stations disponibles sont représentées par des disques jaunes et rouges sur la carte.

Passer la souris dessus pour voir le nom de la station.

Cliquer dessus pour voir les observations et prévisions météorologiques.

Pour changer de carte: cliquez sur les boutons verts avec une croix noire pour zoomer, sur le bouton vert avec un tiret pour effectuer un zoom arrière, ou sur les flèches vertes pour les cartes adjacentes.


METAR-TAF: